Time;durP1;ratioP1;P1;durP2;ratioP2;P2;SDS_P1;SDS_P2;PMS_P1;PMS_P2;Temp;Humidity;BMP_temperature;BMP_pressure;BME280_temperature;BME280_humidity;BME280_pressure;Samples;Min_cycle;Max_cycle;Signal;HPM_P1;HPM_P2
2023/05/17 00:00:14;;;;;;;0.70;0.43;;;;;;;;;;5023655;28;58478;-61
2023/05/17 00:02:39;;;;;;;0.93;0.43;;;;;;;;;;5024228;28;58844;-61
2023/05/17 00:05:05;;;;;;;1.47;0.67;;;;;;;;;;5025135;28;58629;-62
2023/05/17 00:07:30;;;;;;;0.40;0.40;;;;;;;;;;5020060;28;58516;-61
2023/05/17 00:09:55;;;;;;;1.30;0.80;;;;;;;;;;5017224;28;58748;-62
2023/05/17 00:12:21;;;;;;;0.40;0.40;;;;;;;;;;5025293;28;58693;-62
2023/05/17 00:14:46;;;;;;;0.68;0.55;;;;;;;;;;5022963;28;58444;-61
2023/05/17 00:17:11;;;;;;;0.80;0.50;;;;;;;;;;5024127;28;58923;-62
2023/05/17 00:19:36;;;;;;;1.33;0.75;;;;;;;;;;5014951;28;58921;-61
2023/05/17 00:22:01;;;;;;;0.68;0.43;;;;;;;;;;5024058;28;58644;-62
2023/05/17 00:24:27;;;;;;;0.40;0.40;;;;;;;;;;5025031;28;58671;-62
2023/05/17 00:26:52;;;;;;;0.52;0.47;;;;;;;;;;5023414;28;58531;-62
2023/05/17 00:29:17;;;;;;;0.50;0.50;;;;;;;;;;5020965;28;58416;-62
2023/05/17 00:31:42;;;;;;;0.77;0.60;;;;;;;;;;5017933;28;59190;-59
2023/05/17 00:34:07;;;;;;;1.63;0.82;;;;;;;;;;5021322;28;58559;-62
2023/05/17 00:36:32;;;;;;;0.50;0.50;;;;;;;;;;5025578;28;58737;-61
2023/05/17 00:38:57;;;;;;;1.15;0.40;;;;;;;;;;5025068;28;58880;-62
2023/05/17 00:41:22;;;;;;;0.57;0.38;;;;;;;;;;5015804;28;58676;-62
2023/05/17 00:43:48;;;;;;;0.60;0.60;;;;;;;;;;5030013;28;58829;-62
2023/05/17 00:46:14;;;;;;;1.25;0.40;;;;;;;;;;5027854;28;59524;-62
2023/05/17 00:48:40;;;;;;;0.63;0.63;;;;;;;;;;5028024;28;58350;-62
2023/05/17 00:51:05;;;;;;;1.27;0.80;;;;;;;;;;5020757;28;58787;-62
2023/05/17 00:53:31;;;;;;;0.90;0.70;;;;;;;;;;5027859;28;58399;-62
2023/05/17 00:55:56;;;;;;;0.53;0.53;;;;;;;;;;5030445;28;58350;-61
2023/05/17 00:58:21;;;;;;;1.20;0.67;;;;;;;;;;5026989;28;58623;-62
2023/05/17 01:00:46;;;;;;;0.95;0.80;;;;;;;;;;5026881;28;58457;-61
2023/05/17 01:03:12;;;;;;;1.07;0.60;;;;;;;;;;5022566;28;58541;-62
2023/05/17 01:05:37;;;;;;;1.05;0.70;;;;;;;;;;5027441;28;58413;-61
2023/05/17 01:08:02;;;;;;;0.50;0.37;;;;;;;;;;5027218;28;58063;-61
2023/05/17 01:10:57;;;;;;;1.03;0.63;;;;;;;;;;5027360;28;57871;-62
2023/05/17 01:13:37;;;;;;;1.15;1.05;;;;;;;;;;5010825;28;58702;-61
2023/05/17 01:16:17;;;;;;;0.55;0.55;;;;;;;;;;5027535;28;58532;-61
2023/05/17 01:18:47;;;;;;;0.22;0.22;;;;;;;;;;5029453;28;58901;-61
2023/05/17 01:21:21;;;;;;;0.63;0.47;;;;;;;;;;5028235;28;58398;-62
2023/05/17 01:23:53;;;;;;;1.05;0.52;;;;;;;;;;5021188;28;59168;-61
2023/05/17 01:26:21;;;;;;;0.60;0.60;;;;;;;;;;5027845;28;58856;-60
2023/05/17 01:28:46;;;;;;;;;;;;;;;;;;5030578;28;58350;-61
2023/05/17 01:31:11;;;;;;;1.00;0.80;;;;;;;;;;5028689;28;58741;-61
2023/05/17 01:33:37;;;;;;;0.52;0.40;;;;;;;;;;5020230;28;58379;-62
2023/05/17 01:36:02;;;;;;;0.55;0.55;;;;;;;;;;5027593;28;58283;-59
2023/05/17 01:38:27;;;;;;;0.40;0.40;;;;;;;;;;5028940;28;59221;-62
2023/05/17 01:41:00;;;;;;;0.43;0.43;;;;;;;;;;5028311;28;58297;-62
2023/05/17 01:43:30;;;;;;;0.55;0.55;;;;;;;;;;5028459;28;58259;-61
2023/05/17 01:45:59;;;;;;;0.50;0.43;;;;;;;;;;5028135;28;58704;-62
2023/05/17 01:48:30;;;;;;;0.55;0.55;;;;;;;;;;5029408;28;58465;-61
2023/05/17 01:50:57;;;;;;;0.88;0.50;;;;;;;;;;5022196;28;58446;-62
2023/05/17 01:53:29;;;;;;;0.77;0.40;;;;;;;;;;5020808;28;58751;-62
2023/05/17 01:55:56;;;;;;;0.70;0.60;;;;;;;;;;5027959;28;58748;-62
2023/05/17 01:58:24;;;;;;;0.40;0.40;;;;;;;;;;5028527;28;58793;-62
2023/05/17 02:00:51;;;;;;;0.75;0.60;;;;;;;;;;5024727;28;58807;-62
2023/05/17 02:03:17;;;;;;;0.50;0.50;;;;;;;;;;5020030;28;59313;-62
2023/05/17 02:05:42;;;;;;;0.68;0.50;;;;;;;;;;5028189;28;58841;-60
2023/05/17 02:08:07;;;;;;;1.83;0.55;;;;;;;;;;5028272;28;58837;-61
2023/05/17 02:10:32;;;;;;;0.50;0.43;;;;;;;;;;5028179;28;58487;-62
2023/05/17 02:12:57;;;;;;;0.90;0.60;;;;;;;;;;5027285;28;58625;-62
2023/05/17 02:15:22;;;;;;;0.35;0.35;;;;;;;;;;5024320;28;58428;-62
2023/05/17 02:17:48;;;;;;;0.70;0.70;;;;;;;;;;5028235;28;58609;-62
2023/05/17 02:20:13;;;;;;;1.10;0.60;;;;;;;;;;5028224;28;58519;-62
2023/05/17 02:22:39;;;;;;;0.20;0.20;;;;;;;;;;5026163;28;58337;-62
2023/05/17 02:25:04;;;;;;;0.87;0.63;;;;;;;;;;5017510;28;59989;-62
2023/05/17 02:27:30;;;;;;;0.40;0.35;;;;;;;;;;5027557;28;58639;-62
2023/05/17 02:29:55;;;;;;;0.63;0.57;;;;;;;;;;5024497;28;58359;-62
2023/05/17 02:32:20;;;;;;;0.83;0.50;;;;;;;;;;5026464;28;58703;-61
2023/05/17 02:34:45;;;;;;;0.55;0.55;;;;;;;;;;5021247;28;58734;-61
2023/05/17 02:37:10;;;;;;;0.47;0.30;;;;;;;;;;5026283;28;58777;-61
2023/05/17 02:39:35;;;;;;;1.00;0.47;;;;;;;;;;5024835;28;58545;-62
2023/05/17 02:42:00;;;;;;;0.30;0.30;;;;;;;;;;5028926;28;58333;-61
2023/05/17 02:44:26;;;;;;;0.50;0.38;;;;;;;;;;5026934;28;58403;-62
2023/05/17 02:46:51;;;;;;;0.43;0.33;;;;;;;;;;5020974;28;58434;-61
2023/05/17 02:49:16;;;;;;;0.88;0.38;;;;;;;;;;5027807;28;58772;-62
2023/05/17 02:51:41;;;;;;;0.47;0.30;;;;;;;;;;5025997;28;58596;-62
2023/05/17 02:54:06;;;;;;;0.90;0.87;;;;;;;;;;5024874;28;58388;-60
2023/05/17 02:56:31;;;;;;;0.60;0.40;;;;;;;;;;5020341;28;58640;-62
2023/05/17 02:59:00;;;;;;;0.40;0.40;;;;;;;;;;5026407;28;58587;-62
2023/05/17 03:01:25;;;;;;;0.88;0.77;;;;;;;;;;5027085;28;58216;-61
2023/05/17 03:03:50;;;;;;;0.40;0.40;;;;;;;;;;5023953;28;58391;-61
2023/05/17 03:06:15;;;;;;;0.35;0.25;;;;;;;;;;5026240;28;59046;-62
2023/05/17 03:08:40;;;;;;;0.20;0.20;;;;;;;;;;5022296;28;58722;-62
2023/05/17 03:11:06;;;;;;;0.40;0.30;;;;;;;;;;5025294;28;58455;-62
2023/05/17 03:13:31;;;;;;;0.35;0.20;;;;;;;;;;5024163;28;58705;-62
2023/05/17 03:15:56;;;;;;;0.38;0.38;;;;;;;;;;5026347;28;58749;-60
2023/05/17 03:18:21;;;;;;;1.48;0.43;;;;;;;;;;5016809;28;58436;-62
2023/05/17 03:20:46;;;;;;;1.40;0.50;;;;;;;;;;5022378;28;58605;-61
2023/05/17 03:23:11;;;;;;;0.93;0.63;;;;;;;;;;5025564;28;58180;-61
2023/05/17 03:25:36;;;;;;;0.30;0.25;;;;;;;;;;5026215;28;58309;-60
2023/05/17 03:28:02;;;;;;;0.30;0.30;;;;;;;;;;5023756;28;58308;-62
2023/05/17 03:30:27;;;;;;;0.57;0.47;;;;;;;;;;5011534;28;58520;-62
2023/05/17 03:32:52;;;;;;;0.28;0.25;;;;;;;;;;5017169;28;58501;-61
2023/05/17 03:35:17;;;;;;;0.40;0.40;;;;;;;;;;5021542;28;59008;-62
2023/05/17 03:37:42;;;;;;;0.90;0.40;;;;;;;;;;5017312;28;58233;-61
2023/05/17 03:40:08;;;;;;;0.43;0.28;;;;;;;;;;5016055;28;58636;-62
2023/05/17 03:42:33;;;;;;;1.17;0.70;;;;;;;;;;5013344;28;58545;-62
2023/05/17 03:44:58;;;;;;;0.90;0.60;;;;;;;;;;5011080;28;58884;-61
2023/05/17 03:47:24;;;;;;;0.60;0.32;;;;;;;;;;5017015;28;58850;-61
2023/05/17 03:49:49;;;;;;;0.20;0.20;;;;;;;;;;5016977;28;59656;-62
2023/05/17 03:52:14;;;;;;;0.30;0.30;;;;;;;;;;5019248;28;59380;-61
2023/05/17 03:54:39;;;;;;;0.50;0.10;;;;;;;;;;5015176;28;59787;-62
2023/05/17 03:57:05;;;;;;;0.63;0.40;;;;;;;;;;5014212;28;58916;-61
2023/05/17 03:59:30;;;;;;;1.93;0.23;;;;;;;;;;5014188;28;58850;-62
2023/05/17 04:01:55;;;;;;;0.40;0.40;;;;;;;;;;5015019;28;58940;-62
2023/05/17 04:04:20;;;;;;;0.30;0.30;;;;;;;;;;5015549;28;58395;-61
2023/05/17 04:06:45;;;;;;;0.93;0.50;;;;;;;;;;5018228;28;58407;-62
2023/05/17 04:09:12;;;;;;;0.50;0.50;;;;;;;;;;5016625;28;59000;-61
2023/05/17 04:11:39;;;;;;;1.15;0.55;;;;;;;;;;5012191;28;58539;-60
2023/05/17 04:14:04;;;;;;;0.30;0.30;;;;;;;;;;5012836;28;58783;-61
2023/05/17 04:16:29;;;;;;;0.68;0.55;;;;;;;;;;5016735;28;59023;-62
2023/05/17 04:18:55;;;;;;;1.27;0.20;;;;;;;;;;5013893;28;58335;-62
2023/05/17 04:21:20;;;;;;;2.17;0.50;;;;;;;;;;5014813;28;59150;-62
2023/05/17 04:23:45;;;;;;;0.60;0.20;;;;;;;;;;5021373;28;59269;-62
2023/05/17 04:26:10;;;;;;;0.60;0.30;;;;;;;;;;5015018;28;58482;-61
2023/05/17 04:28:35;;;;;;;0.40;0.40;;;;;;;;;;5021798;28;58317;-62
2023/05/17 04:31:00;;;;;;;0.40;0.40;;;;;;;;;;5015807;28;59301;-61
2023/05/17 04:33:26;;;;;;;0.30;0.30;;;;;;;;;;5010160;28;58400;-62
2023/05/17 04:35:53;;;;;;;1.05;0.70;;;;;;;;;;5013272;28;58770;-62
2023/05/17 04:38:18;;;;;;;1.00;0.35;;;;;;;;;;5011982;28;58322;-61
2023/05/17 04:40:43;;;;;;;0.52;0.25;;;;;;;;;;5014731;28;58399;-62
2023/05/17 04:43:08;;;;;;;1.52;0.65;;;;;;;;;;5012623;28;58529;-61
2023/05/17 04:45:34;;;;;;;1.52;0.75;;;;;;;;;;5010709;28;58588;-62
2023/05/17 04:47:59;;;;;;;0.67;0.40;;;;;;;;;;5010715;28;60116;-62
2023/05/17 04:50:24;;;;;;;1.33;0.50;;;;;;;;;;5015318;28;58448;-61
2023/05/17 04:52:49;;;;;;;1.17;0.67;;;;;;;;;;5013937;28;58477;-62
2023/05/17 04:55:15;;;;;;;2.67;0.75;;;;;;;;;;5012944;28;58846;-61
2023/05/17 04:57:40;;;;;;;2.07;0.90;;;;;;;;;;5010560;28;58816;-60
2023/05/17 05:00:06;;;;;;;1.63;1.00;;;;;;;;;;5019740;28;59915;-62
2023/05/17 05:02:31;;;;;;;2.97;1.08;;;;;;;;;;5016895;28;58818;-62
2023/05/17 05:04:56;;;;;;;2.67;0.82;;;;;;;;;;5016071;28;58681;-63
2023/05/17 05:07:22;;;;;;;1.40;0.93;;;;;;;;;;5011742;28;58343;-63
2023/05/17 05:09:47;;;;;;;2.08;0.52;;;;;;;;;;5013731;28;58314;-62
2023/05/17 05:12:12;;;;;;;1.03;0.73;;;;;;;;;;5009953;28;58708;-62
2023/05/17 05:14:37;;;;;;;1.98;0.93;;;;;;;;;;5019804;28;58739;-62
2023/05/17 05:17:02;;;;;;;2.47;0.93;;;;;;;;;;5020218;28;58704;-59
2023/05/17 05:19:27;;;;;;;2.97;1.30;;;;;;;;;;5013583;28;58335;-60
2023/05/17 05:21:52;;;;;;;2.58;1.08;;;;;;;;;;5013486;28;58767;-60
2023/05/17 05:24:18;;;;;;;2.10;1.10;;;;;;;;;;5020643;28;58251;-60
2023/05/17 05:26:44;;;;;;;0.97;0.90;;;;;;;;;;5011886;28;58891;-59
2023/05/17 05:29:09;;;;;;;1.42;0.95;;;;;;;;;;5018263;28;58496;-59
2023/05/17 05:31:34;;;;;;;3.08;1.63;;;;;;;;;;5014687;28;58650;-59
2023/05/17 05:34:00;;;;;;;4.60;0.90;;;;;;;;;;5016653;28;58714;-60
2023/05/17 05:36:25;;;;;;;1.70;1.00;;;;;;;;;;5017190;28;58771;-60
2023/05/17 05:38:53;;;;;;;1.90;1.15;;;;;;;;;;5017106;28;58425;-59
2023/05/17 05:41:18;;;;;;;1.95;0.98;;;;;;;;;;5014175;28;58664;-60
2023/05/17 05:43:43;;;;;;;2.65;0.93;;;;;;;;;;5012665;28;58358;-59
2023/05/17 05:46:08;;;;;;;3.00;1.17;;;;;;;;;;5015972;28;58329;-59
2023/05/17 05:48:33;;;;;;;1.87;1.00;;;;;;;;;;5019367;28;58440;-60
2023/05/17 05:50:58;;;;;;;3.90;0.80;;;;;;;;;;5017511;28;58207;-59
2023/05/17 05:53:24;;;;;;;4.50;1.07;;;;;;;;;;5023621;28;58352;-60
2023/05/17 05:55:49;;;;;;;1.50;1.20;;;;;;;;;;5019395;28;58805;-59
2023/05/17 05:58:14;;;;;;;2.70;1.03;;;;;;;;;;5016643;28;58386;-59
2023/05/17 06:00:39;;;;;;;4.35;1.42;;;;;;;;;;5022903;28;58572;-61
2023/05/17 06:03:05;;;;;;;2.90;1.17;;;;;;;;;;5025784;28;58469;-60
2023/05/17 06:05:30;;;;;;;1.90;0.90;;;;;;;;;;5021303;28;58834;-59
2023/05/17 06:07:56;;;;;;;3.23;0.87;;;;;;;;;;5013523;28;58734;-59
2023/05/17 06:10:21;;;;;;;4.50;1.25;;;;;;;;;;5017660;28;58635;-59
2023/05/17 06:12:46;;;;;;;2.30;1.27;;;;;;;;;;5016107;28;58462;-59
2023/05/17 06:15:11;;;;;;;1.50;0.80;;;;;;;;;;5020212;28;58608;-59
2023/05/17 06:17:37;;;;;;;4.03;1.57;;;;;;;;;;5015011;28;58658;-60
2023/05/17 06:20:02;;;;;;;3.07;1.10;;;;;;;;;;5019482;28;58291;-59
2023/05/17 06:22:27;;;;;;;1.65;1.40;;;;;;;;;;5013487;28;58816;-58
2023/05/17 06:24:52;;;;;;;2.80;0.88;;;;;;;;;;5015360;28;58071;-59
2023/05/17 06:27:17;;;;;;;3.92;1.45;;;;;;;;;;5015780;28;58387;-59
2023/05/17 06:29:42;;;;;;;1.95;1.10;;;;;;;;;;5017965;28;58572;-59
2023/05/17 06:32:08;;;;;;;4.22;1.40;;;;;;;;;;5012168;28;58932;-59
2023/05/17 06:34:33;;;;;;;2.53;1.10;;;;;;;;;;5017420;28;58522;-59
2023/05/17 06:36:58;;;;;;;4.17;0.80;;;;;;;;;;5021107;28;58601;-59
2023/05/17 06:39:24;;;;;;;1.35;0.65;;;;;;;;;;5015617;28;58713;-59
2023/05/17 06:41:49;;;;;;;1.60;1.27;;;;;;;;;;5019502;28;58462;-60
2023/05/17 06:44:14;;;;;;;2.67;1.30;;;;;;;;;;5017568;28;58204;-60
2023/05/17 06:46:39;;;;;;;3.80;2.10;;;;;;;;;;5014688;28;58494;-58
2023/05/17 06:49:04;;;;;;;2.43;1.33;;;;;;;;;;5017972;28;58987;-60
2023/05/17 06:51:30;;;;;;;3.35;1.48;;;;;;;;;;5020227;28;58946;-59
2023/05/17 06:53:55;;;;;;;2.22;1.00;;;;;;;;;;5020136;28;58791;-59
2023/05/17 06:56:20;;;;;;;4.00;1.13;;;;;;;;;;5018626;28;58090;-58
2023/05/17 06:58:45;;;;;;;1.67;0.80;;;;;;;;;;5019968;28;58235;-60
2023/05/17 07:01:11;;;;;;;2.13;1.37;;;;;;;;;;5015068;28;58486;-59
2023/05/17 07:03:36;;;;;;;1.17;0.98;;;;;;;;;;5016037;28;58490;-59
2023/05/17 07:06:02;;;;;;;2.00;1.15;;;;;;;;;;5014998;28;58539;-60
2023/05/17 07:08:27;;;;;;;1.60;0.60;;;;;;;;;;5018472;28;58362;-59
2023/05/17 07:10:52;;;;;;;6.43;1.60;;;;;;;;;;5018773;28;58362;-59
2023/05/17 07:13:17;;;;;;;2.60;1.13;;;;;;;;;;5013132;28;58697;-59
2023/05/17 07:15:43;;;;;;;2.50;1.30;;;;;;;;;;5013946;28;58209;-59
2023/05/17 07:18:08;;;;;;;4.60;0.90;;;;;;;;;;5016129;28;58756;-59
2023/05/17 07:20:33;;;;;;;2.23;0.73;;;;;;;;;;5018418;28;58340;-60
2023/05/17 07:22:58;;;;;;;4.10;0.97;;;;;;;;;;5015055;28;58341;-59
2023/05/17 07:25:24;;;;;;;2.13;1.10;;;;;;;;;;5011853;28;58960;-60
2023/05/17 07:27:49;;;;;;;1.20;1.10;;;;;;;;;;5017240;28;58690;-60
2023/05/17 07:30:14;;;;;;;1.25;0.90;;;;;;;;;;5015526;28;58841;-60
2023/05/17 07:32:40;;;;;;;0.97;0.70;;;;;;;;;;5014697;28;58456;-59
2023/05/17 07:35:05;;;;;;;1.65;1.27;;;;;;;;;;5021700;28;58645;-60
2023/05/17 07:37:30;;;;;;;0.90;0.80;;;;;;;;;;5010566;28;59860;-59
2023/05/17 07:39:55;;;;;;;1.70;1.23;;;;;;;;;;5013307;28;58468;-60
2023/05/17 07:42:20;;;;;;;0.88;0.70;;;;;;;;;;5018718;28;58442;-59
2023/05/17 07:44:47;;;;;;;1.55;1.15;;;;;;;;;;5013125;28;59173;-59
2023/05/17 07:47:12;;;;;;;1.52;0.60;;;;;;;;;;5018747;28;58490;-59
2023/05/17 07:49:37;;;;;;;2.00;0.97;;;;;;;;;;5019182;28;58481;-59
2023/05/17 07:52:03;;;;;;;3.35;1.55;;;;;;;;;;5019343;28;58636;-59
2023/05/17 07:54:28;;;;;;;1.80;0.80;;;;;;;;;;5017451;28;58479;-59
2023/05/17 07:56:54;;;;;;;2.00;0.80;;;;;;;;;;5016424;28;58531;-59
2023/05/17 07:59:22;;;;;;;1.27;0.40;;;;;;;;;;5018654;28;58608;-57
2023/05/17 08:01:47;;;;;;;1.40;0.70;;;;;;;;;;5020408;28;58448;-60
2023/05/17 08:04:13;;;;;;;1.80;0.87;;;;;;;;;;5014195;28;58578;-59
2023/05/17 08:06:38;;;;;;;0.63;0.60;;;;;;;;;;5018032;28;58450;-59
2023/05/17 08:09:03;;;;;;;2.45;0.88;;;;;;;;;;5015605;28;58381;-58
2023/05/17 08:11:28;;;;;;;1.65;0.80;;;;;;;;;;5015493;28;58724;-59
2023/05/17 08:13:54;;;;;;;1.30;0.70;;;;;;;;;;5018264;28;58673;-59
2023/05/17 08:16:19;;;;;;;1.30;0.80;;;;;;;;;;5018920;28;59505;-59
2023/05/17 08:18:44;;;;;;;1.40;1.30;;;;;;;;;;5014521;28;58309;-58
2023/05/17 08:21:10;;;;;;;1.30;0.93;;;;;;;;;;5012239;28;58238;-59
2023/05/17 08:23:35;;;;;;;1.00;0.53;;;;;;;;;;5018395;28;58374;-59
2023/05/17 08:26:00;;;;;;;1.73;0.70;;;;;;;;;;5015101;28;58763;-59
2023/05/17 08:28:25;;;;;;;1.10;0.70;;;;;;;;;;5023676;28;58759;-60
2023/05/17 08:30:50;;;;;;;2.17;0.50;;;;;;;;;;5011319;28;58416;-59
2023/05/17 08:33:16;;;;;;;0.60;0.50;;;;;;;;;;5014167;28;58529;-60
2023/05/17 08:35:41;;;;;;;1.45;1.23;;;;;;;;;;5017552;28;58598;-59
2023/05/17 08:38:07;;;;;;;0.95;0.77;;;;;;;;;;5013959;28;59107;-59
2023/05/17 08:40:32;;;;;;;1.02;0.43;;;;;;;;;;5007652;28;58484;-59
2023/05/17 08:42:57;;;;;;;0.50;0.50;;;;;;;;;;5013750;28;58814;-59
2023/05/17 08:45:23;;;;;;;0.50;0.30;;;;;;;;;;5018379;28;58475;-59
2023/05/17 08:47:49;;;;;;;1.55;0.82;;;;;;;;;;5018016;28;58519;-59
2023/05/17 08:50:16;;;;;;;0.85;0.30;;;;;;;;;;5025292;28;58942;-59
2023/05/17 08:52:43;;;;;;;1.48;0.70;;;;;;;;;;5019202;28;58220;-59
2023/05/17 08:55:09;;;;;;;0.85;0.40;;;;;;;;;;5016756;28;58951;-59
2023/05/17 08:57:36;;;;;;;3.03;0.50;;;;;;;;;;5016542;28;58931;-62
2023/05/17 09:00:11;;;;;;;0.75;0.43;;;;;;;;;;5015115;28;58465;-55
2023/05/17 09:02:36;;;;;;;1.55;0.77;;;;;;;;;;5017464;28;58963;-60
2023/05/17 09:05:01;;;;;;;1.50;0.70;;;;;;;;;;5019393;28;58658;-58
2023/05/17 09:07:26;;;;;;;1.27;0.67;;;;;;;;;;5019264;28;58285;-60
2023/05/17 09:09:52;;;;;;;1.02;0.60;;;;;;;;;;5019798;28;58743;-59
2023/05/17 09:12:17;;;;;;;0.40;0.35;;;;;;;;;;5019803;28;58557;-59
2023/05/17 09:14:43;;;;;;;1.38;0.85;;;;;;;;;;5018563;28;58389;-59
2023/05/17 09:17:12;;;;;;;1.48;0.52;;;;;;;;;;5018829;28;58396;-60
2023/05/17 09:19:42;;;;;;;1.13;0.47;;;;;;;;;;5020957;28;58388;-60
2023/05/17 09:22:07;;;;;;;1.95;0.70;;;;;;;;;;5020017;28;59442;-59
2023/05/17 09:24:32;;;;;;;1.27;0.93;;;;;;;;;;5019791;28;58785;-60
2023/05/17 09:27:02;;;;;;;1.30;0.47;;;;;;;;;;5017646;28;58538;-60
2023/05/17 09:29:29;;;;;;;1.15;0.38;;;;;;;;;;5023255;28;58379;-60
2023/05/17 09:31:54;;;;;;;0.30;0.30;;;;;;;;;;5013128;28;58494;-59
2023/05/17 09:34:19;;;;;;;0.60;0.28;;;;;;;;;;5022823;28;58347;-60
2023/05/17 09:36:45;;;;;;;1.52;0.73;;;;;;;;;;5022557;28;58285;-60
2023/05/17 09:39:11;;;;;;;0.77;0.50;;;;;;;;;;5016157;28;58858;-60
2023/05/17 09:41:45;;;;;;;0.30;0.22;;;;;;;;;;5020301;28;58586;-59
2023/05/17 09:44:10;;;;;;;0.35;0.32;;;;;;;;;;5013598;28;58366;-60
2023/05/17 09:46:40;;;;;;;0.75;0.60;;;;;;;;;;5015298;28;58590;-60
2023/05/17 09:49:06;;;;;;;0.47;0.30;;;;;;;;;;5022898;28;58319;-60
2023/05/17 09:51:31;;;;;;;0.63;0.45;;;;;;;;;;5013966;28;58827;-60
2023/05/17 09:53:58;;;;;;;0.65;0.60;;;;;;;;;;5020323;28;58420;-60
2023/05/17 09:56:26;;;;;;;1.27;0.65;;;;;;;;;;5014080;28;58699;-60
2023/05/17 09:58:51;;;;;;;0.82;0.47;;;;;;;;;;5018410;28;58418;-60
2023/05/17 10:01:16;;;;;;;1.42;0.55;;;;;;;;;;5018941;28;59164;-59
2023/05/17 10:03:42;;;;;;;0.47;0.27;;;;;;;;;;5016363;28;57745;-60
2023/05/17 10:06:08;;;;;;;1.13;0.50;;;;;;;;;;5017389;28;58868;-60
2023/05/17 10:08:35;;;;;;;0.57;0.40;;;;;;;;;;5012216;28;58425;-60
2023/05/17 10:11:07;;;;;;;0.20;0.20;;;;;;;;;;5017091;28;58583;-58
2023/05/17 10:13:39;;;;;;;0.43;0.35;;;;;;;;;;5014895;28;58390;-60
2023/05/17 10:16:05;;;;;;;0.40;0.40;;;;;;;;;;5018557;28;60028;-56
2023/05/17 10:18:30;;;;;;;1.00;0.32;;;;;;;;;;5015194;28;58396;-60
2023/05/17 10:20:56;;;;;;;0.50;0.45;;;;;;;;;;5022464;28;58397;-60
2023/05/17 10:23:21;;;;;;;0.97;0.37;;;;;;;;;;5017652;28;58430;-60
2023/05/17 10:25:47;;;;;;;0.65;0.30;;;;;;;;;;5016433;28;58314;-60
2023/05/17 10:28:14;;;;;;;0.60;0.60;;;;;;;;;;5017755;28;58423;-60
2023/05/17 10:30:41;;;;;;;1.02;0.65;;;;;;;;;;5012405;28;58800;-60
2023/05/17 10:33:07;;;;;;;0.77;0.47;;;;;;;;;;5014728;28;58536;-60
2023/05/17 10:35:33;;;;;;;0.73;0.40;;;;;;;;;;5019012;28;58943;-59
2023/05/17 10:37:59;;;;;;;0.55;0.38;;;;;;;;;;5021587;28;58843;-60
2023/05/17 10:40:24;;;;;;;0.50;0.13;;;;;;;;;;5012171;28;58367;-60
2023/05/17 10:42:50;;;;;;;1.37;0.30;;;;;;;;;;5014446;28;58385;-60
2023/05/17 10:45:19;;;;;;;0.25;0.25;;;;;;;;;;5020941;28;58243;-60
2023/05/17 10:47:44;;;;;;;0.40;0.15;;;;;;;;;;5012674;28;58390;-60
2023/05/17 10:50:13;;;;;;;0.30;0.30;;;;;;;;;;5019189;28;59368;-60
2023/05/17 10:52:45;;;;;;;1.05;0.22;;;;;;;;;;5019676;28;58789;-59
2023/05/17 10:55:10;;;;;;;0.52;0.32;;;;;;;;;;5016952;28;58598;-59
2023/05/17 10:57:36;;;;;;;0.88;0.32;;;;;;;;;;5011036;28;58594;-59
2023/05/17 11:00:05;;;;;;;0.95;0.50;;;;;;;;;;5018719;28;57877;-60
2023/05/17 11:02:30;;;;;;;0.40;0.40;;;;;;;;;;5022651;28;58521;-60
2023/05/17 11:04:56;;;;;;;0.22;0.20;;;;;;;;;;5017641;28;58909;-60
2023/05/17 11:07:26;;;;;;;0.38;0.25;;;;;;;;;;5015950;28;58657;-60
2023/05/17 11:10:07;;;;;;;0.47;0.38;;;;;;;;;;5018719;28;58504;-60
2023/05/17 11:12:40;;;;;;;1.55;0.50;;;;;;;;;;5016441;28;58435;-60
2023/05/17 11:15:06;;;;;;;0.45;0.20;;;;;;;;;;5016152;28;59967;-58
2023/05/17 11:17:35;;;;;;;0.32;0.30;;;;;;;;;;5013754;28;58343;-60
2023/05/17 11:20:06;;;;;;;0.65;0.22;;;;;;;;;;5021079;28;58976;-59
2023/05/17 11:22:38;;;;;;;0.57;0.43;;;;;;;;;;5022037;28;58799;-60
2023/05/17 11:25:05;;;;;;;0.70;0.60;;;;;;;;;;5017251;28;58359;-60
2023/05/17 11:27:35;;;;;;;0.25;0.25;;;;;;;;;;5017265;28;58938;-58
2023/05/17 11:30:06;;;;;;;0.50;0.30;;;;;;;;;;5012829;28;58368;-57
2023/05/17 11:32:31;;;;;;;0.35;0.30;;;;;;;;;;5016374;28;58597;-59
2023/05/17 11:35:00;;;;;;;1.87;0.30;;;;;;;;;;5023099;28;58832;-59
2023/05/17 11:37:26;;;;;;;0.32;0.10;;;;;;;;;;5022289;28;58477;-59
2023/05/17 11:40:11;;;;;;;0.60;0.40;;;;;;;;;;5014599;28;58357;-60
2023/05/17 11:42:37;;;;;;;0.22;0.22;;;;;;;;;;5014158;28;58343;-60
2023/05/17 11:45:02;;;;;;;0.73;0.28;;;;;;;;;;5015608;28;58397;-58
2023/05/17 11:47:27;;;;;;;1.27;0.57;;;;;;;;;;5014503;28;59871;-60
2023/05/17 11:49:53;;;;;;;0.20;0.10;;;;;;;;;;5025516;28;58327;-60
2023/05/17 11:52:18;;;;;;;0.55;0.55;;;;;;;;;;5014590;28;58671;-59
2023/05/17 11:54:44;;;;;;;0.50;0.30;;;;;;;;;;5013727;28;58591;-60
2023/05/17 11:57:10;;;;;;;0.10;0.10;;;;;;;;;;5015248;28;58903;-59
2023/05/17 11:59:39;;;;;;;1.65;0.20;;;;;;;;;;5013768;28;58259;-61
2023/05/17 12:02:05;;;;;;;0.47;0.30;;;;;;;;;;5015924;28;58792;-62
2023/05/17 12:04:33;;;;;;;0.95;0.40;;;;;;;;;;5026587;28;58505;-63
2023/05/17 12:07:00;;;;;;;2.17;0.57;;;;;;;;;;5026957;28;58434;-63
2023/05/17 12:09:25;;;;;;;0.20;0.20;;;;;;;;;;5019725;28;59391;-62
2023/05/17 12:11:50;;;;;;;7.13;0.90;;;;;;;;;;5013639;28;58770;-65
2023/05/17 12:14:16;;;;;;;3.53;0.40;;;;;;;;;;5020088;28;59383;-62
2023/05/17 12:16:42;;;;;;;1.45;0.43;;;;;;;;;;5011681;28;58716;-58
2023/05/17 12:19:18;;;;;;;0.63;0.50;;;;;;;;;;5017269;28;58756;-60
2023/05/17 12:21:43;;;;;;;0.32;0.30;;;;;;;;;;5022510;28;59085;-59
2023/05/17 12:24:08;;;;;;;0.50;0.50;;;;;;;;;;5022946;28;58855;-59
2023/05/17 12:26:35;;;;;;;2.43;0.40;;;;;;;;;;5012802;28;58598;-59
2023/05/17 12:29:00;;;;;;;4.25;0.68;;;;;;;;;;5016004;28;59358;-59
2023/05/17 12:31:27;;;;;;;2.75;0.30;;;;;;;;;;5020720;28;59023;-60
2023/05/17 12:33:52;;;;;;;0.40;0.40;;;;;;;;;;5022418;28;59912;-60
2023/05/17 12:36:17;;;;;;;0.90;0.30;;;;;;;;;;5019425;28;59252;-57
2023/05/17 12:38:43;;;;;;;0.63;0.30;;;;;;;;;;5016124;28;58307;-56
2023/05/17 12:41:13;;;;;;;1.58;0.82;;;;;;;;;;5026322;28;58609;-57
2023/05/17 12:43:39;;;;;;;1.38;0.30;;;;;;;;;;5019230;28;58831;-57
2023/05/17 12:46:08;;;;;;;2.72;0.75;;;;;;;;;;5016796;28;60125;-61
2023/05/17 12:48:34;;;;;;;7.68;2.10;;;;;;;;;;5022486;28;59645;-60
2023/05/17 12:51:06;;;;;;;5.15;0.93;;;;;;;;;;5024525;28;58531;-59
2023/05/17 12:53:36;;;;;;;7.50;1.50;;;;;;;;;;5018051;28;58912;-61
2023/05/17 12:56:01;;;;;;;13.00;1.88;;;;;;;;;;5019575;28;58803;-57
2023/05/17 12:58:26;;;;;;;5.77;1.10;;;;;;;;;;5024541;28;58464;-58
2023/05/17 13:00:59;;;;;;;9.63;1.30;;;;;;;;;;5022904;28;58816;-60
2023/05/17 13:03:25;;;;;;;5.43;1.20;;;;;;;;;;5023833;28;59562;-57
2023/05/17 13:05:57;;;;;;;3.70;0.80;;;;;;;;;;5023831;28;59009;-56
2023/05/17 13:08:23;;;;;;;3.45;1.48;;;;;;;;;;5023807;28;59075;-57
2023/05/17 13:10:48;;;;;;;7.18;1.60;;;;;;;;;;5024441;28;58659;-57
2023/05/17 13:13:17;;;;;;;5.20;1.58;;;;;;;;;;5023491;28;59163;-58
2023/05/17 13:15:44;;;;;;;1.35;0.60;;;;;;;;;;5023358;28;58559;-58
2023/05/17 13:18:14;;;;;;;3.25;0.85;;;;;;;;;;5024456;28;58425;-57
2023/05/17 13:20:39;;;;;;;5.05;0.95;;;;;;;;;;5023692;28;60064;-59
2023/05/17 13:23:05;;;;;;;1.17;0.40;;;;;;;;;;5014613;28;58527;-56
2023/05/17 13:25:30;;;;;;;2.75;1.23;;;;;;;;;;5023870;28;58758;-58
2023/05/17 13:27:55;;;;;;;3.73;1.77;;;;;;;;;;5023343;28;59037;-58
2023/05/17 13:30:20;;;;;;;6.28;0.93;;;;;;;;;;5022529;28;57982;-58
2023/05/17 13:32:46;;;;;;;2.53;1.03;;;;;;;;;;5023608;28;58378;-59
2023/05/17 13:35:11;;;;;;;3.17;0.57;;;;;;;;;;5019985;28;58818;-59
2023/05/17 13:37:36;;;;;;;1.67;1.30;;;;;;;;;;5023635;28;58646;-58
2023/05/17 13:40:02;;;;;;;2.40;0.80;;;;;;;;;;5024142;28;59088;-59
2023/05/17 13:42:27;;;;;;;2.70;0.85;;;;;;;;;;5022142;28;58608;-58
2023/05/17 13:44:53;;;;;;;2.45;1.23;;;;;;;;;;5019499;28;58509;-57
2023/05/17 13:47:18;;;;;;;2.13;0.70;;;;;;;;;;5024110;28;58854;-58
2023/05/17 13:49:43;;;;;;;0.93;0.40;;;;;;;;;;5025099;28;58966;-57
2023/05/17 13:52:08;;;;;;;1.92;0.63;;;;;;;;;;5026387;28;58620;-58
2023/05/17 13:54:33;;;;;;;0.70;0.60;;;;;;;;;;5023513;28;59270;-58
2023/05/17 13:56:59;;;;;;;2.63;0.95;;;;;;;;;;5026542;28;58686;-58
2023/05/17 13:59:24;;;;;;;2.63;0.98;;;;;;;;;;5026195;28;59184;-58
2023/05/17 14:01:50;;;;;;;1.95;1.05;;;;;;;;;;5025733;28;58692;-59
2023/05/17 14:04:15;;;;;;;2.57;0.50;;;;;;;;;;5025389;28;58777;-58
2023/05/17 14:06:40;;;;;;;1.53;0.40;;;;;;;;;;5024713;28;59129;-58
2023/05/17 14:09:05;;;;;;;2.75;0.65;;;;;;;;;;5025737;28;58501;-59
2023/05/17 14:11:31;;;;;;;2.17;1.20;;;;;;;;;;5027214;28;58601;-57
2023/05/17 14:13:56;;;;;;;1.20;0.38;;;;;;;;;;5025836;28;58480;-59
2023/05/17 14:16:21;;;;;;;1.13;0.40;;;;;;;;;;5024189;28;58443;-58
2023/05/17 14:18:46;;;;;;;1.23;0.73;;;;;;;;;;5026750;28;58509;-56
2023/05/17 14:21:11;;;;;;;1.17;0.50;;;;;;;;;;5025880;28;58342;-58
2023/05/17 14:23:37;;;;;;;1.42;0.63;;;;;;;;;;5025668;28;58785;-58
2023/05/17 14:26:05;;;;;;;0.80;0.40;;;;;;;;;;5026787;28;58730;-58
2023/05/17 14:28:31;;;;;;;0.98;0.85;;;;;;;;;;5024871;28;58886;-58
2023/05/17 14:30:56;;;;;;;2.08;0.55;;;;;;;;;;5026522;28;59090;-58
2023/05/17 14:33:21;;;;;;;1.27;0.50;;;;;;;;;;5025299;28;58758;-56
2023/05/17 14:35:46;;;;;;;0.67;0.40;;;;;;;;;;5026008;28;58693;-58